sensor_id;sensor_type;location;lat;lon;timestamp;temperature;humidity
429;DHT22;201;48.758;9.290;2022-11-23T00:01:33;3.90;12.50
429;DHT22;201;48.758;9.290;2022-11-23T00:04:02;3.90;12.50
429;DHT22;201;48.758;9.290;2022-11-23T00:06:27;3.90;12.50
429;DHT22;201;48.758;9.290;2022-11-23T00:08:53;3.90;12.50
429;DHT22;201;48.758;9.290;2022-11-23T00:11:21;3.90;12.50
429;DHT22;201;48.758;9.290;2022-11-23T00:13:47;3.90;12.60
429;DHT22;201;48.758;9.290;2022-11-23T00:18:39;3.90;12.80
429;DHT22;201;48.758;9.290;2022-11-23T00:21:13;3.90;13.10
429;DHT22;201;48.758;9.290;2022-11-23T00:23:39;3.80;13.20
429;DHT22;201;48.758;9.290;2022-11-23T00:26:05;3.80;13.30
429;DHT22;201;48.758;9.290;2022-11-23T00:28:31;3.80;13.40
429;DHT22;201;48.758;9.290;2022-11-23T00:30:57;3.70;13.50
429;DHT22;201;48.758;9.290;2022-11-23T00:33:23;3.70;13.50
429;DHT22;201;48.758;9.290;2022-11-23T00:36:01;3.70;13.80
429;DHT22;201;48.758;9.290;2022-11-23T00:38:28;3.70;13.80
429;DHT22;201;48.758;9.290;2022-11-23T00:40:58;3.70;13.80
429;DHT22;201;48.758;9.290;2022-11-23T00:43:24;3.60;13.60
429;DHT22;201;48.758;9.290;2022-11-23T00:45:49;3.60;13.50
429;DHT22;201;48.758;9.290;2022-11-23T00:48:15;3.60;13.90
429;DHT22;201;48.758;9.290;2022-11-23T00:50:41;3.60;14.10
429;DHT22;201;48.758;9.290;2022-11-23T00:53:06;3.60;14.10
429;DHT22;201;48.758;9.290;2022-11-23T00:55:31;3.70;14.50
429;DHT22;201;48.758;9.290;2022-11-23T00:57:57;3.70;14.20
429;DHT22;201;48.758;9.290;2022-11-23T01:00:22;3.80;13.80
429;DHT22;201;48.758;9.290;2022-11-23T01:02:48;3.80;13.40
429;DHT22;201;48.758;9.290;2022-11-23T01:05:13;3.80;13.10
429;DHT22;201;48.758;9.290;2022-11-23T01:07:39;3.90;12.60
429;DHT22;201;48.758;9.290;2022-11-23T01:10:05;4.00;12.70
429;DHT22;201;48.758;9.290;2022-11-23T01:12:32;4.10;12.40
429;DHT22;201;48.758;9.290;2022-11-23T01:14:58;4.10;12.30
429;DHT22;201;48.758;9.290;2022-11-23T01:17:23;4.20;12.20
429;DHT22;201;48.758;9.290;2022-11-23T01:19:49;4.30;12.20
429;DHT22;201;48.758;9.290;2022-11-23T01:22:14;4.30;11.80
429;DHT22;201;48.758;9.290;2022-11-23T01:24:40;4.40;11.50
429;DHT22;201;48.758;9.290;2022-11-23T01:27:05;4.30;10.30
429;DHT22;201;48.758;9.290;2022-11-23T01:29:31;4.30;10.40
429;DHT22;201;48.758;9.290;2022-11-23T01:31:56;4.30;10.20
429;DHT22;201;48.758;9.290;2022-11-23T01:34:22;4.20;10.10
429;DHT22;201;48.758;9.290;2022-11-23T01:36:47;4.20;10.30
429;DHT22;201;48.758;9.290;2022-11-23T01:39:13;4.10;10.30
429;DHT22;201;48.758;9.290;2022-11-23T01:41:40;4.10;10.40
429;DHT22;201;48.758;9.290;2022-11-23T01:44:28;4.10;10.60
429;DHT22;201;48.758;9.290;2022-11-23T01:46:56;4.10;10.60
429;DHT22;201;48.758;9.290;2022-11-23T01:49:23;4.10;10.60
429;DHT22;201;48.758;9.290;2022-11-23T01:51:50;4.10;10.60
429;DHT22;201;48.758;9.290;2022-11-23T01:54:29;4.10;10.60
429;DHT22;201;48.758;9.290;2022-11-23T01:57:00;4.10;10.60
429;DHT22;201;48.758;9.290;2022-11-23T01:59:28;4.10;10.60
429;DHT22;201;48.758;9.290;2022-11-23T02:01:54;4.10;10.60
429;DHT22;201;48.758;9.290;2022-11-23T02:04:23;4.10;10.60
429;DHT22;201;48.758;9.290;2022-11-23T02:06:51;4.10;10.60
429;DHT22;201;48.758;9.290;2022-11-23T02:09:17;4.00;10.50
429;DHT22;201;48.758;9.290;2022-11-23T02:11:44;3.90;10.80
429;DHT22;201;48.758;9.290;2022-11-23T02:14:09;3.80;11.10
429;DHT22;201;48.758;9.290;2022-11-23T02:16:36;3.80;11.20
429;DHT22;201;48.758;9.290;2022-11-23T02:19:02;3.70;11.50
429;DHT22;201;48.758;9.290;2022-11-23T02:21:29;3.60;11.70
429;DHT22;201;48.758;9.290;2022-11-23T02:24:06;3.50;11.90
429;DHT22;201;48.758;9.290;2022-11-23T02:26:35;3.40;12.10
429;DHT22;201;48.758;9.290;2022-11-23T02:29:19;3.30;12.40
429;DHT22;201;48.758;9.290;2022-11-23T02:31:46;3.30;12.90
429;DHT22;201;48.758;9.290;2022-11-23T02:34:11;3.20;13.30
429;DHT22;201;48.758;9.290;2022-11-23T02:36:48;3.10;14.00
429;DHT22;201;48.758;9.290;2022-11-23T02:39:25;3.00;14.00
429;DHT22;201;48.758;9.290;2022-11-23T02:41:53;3.00;14.00
429;DHT22;201;48.758;9.290;2022-11-23T02:44:29;2.90;14.40
429;DHT22;201;48.758;9.290;2022-11-23T02:46:56;2.90;14.80
429;DHT22;201;48.758;9.290;2022-11-23T02:49:23;2.90;15.00
429;DHT22;201;48.758;9.290;2022-11-23T02:51:48;2.90;15.10
429;DHT22;201;48.758;9.290;2022-11-23T02:54:14;2.80;15.30
429;DHT22;201;48.758;9.290;2022-11-23T02:56:39;2.80;15.60
429;DHT22;201;48.758;9.290;2022-11-23T02:59:05;2.80;15.60
429;DHT22;201;48.758;9.290;2022-11-23T03:01:31;2.80;15.90
429;DHT22;201;48.758;9.290;2022-11-23T03:03:56;2.80;15.90
429;DHT22;201;48.758;9.290;2022-11-23T03:06:22;2.80;16.00
429;DHT22;201;48.758;9.290;2022-11-23T03:08:47;2.80;16.00
429;DHT22;201;48.758;9.290;2022-11-23T03:11:13;2.80;15.90
429;DHT22;201;48.758;9.290;2022-11-23T03:13:38;2.80;15.90
429;DHT22;201;48.758;9.290;2022-11-23T03:16:04;2.70;15.90
429;DHT22;201;48.758;9.290;2022-11-23T03:18:30;2.70;15.90
429;DHT22;201;48.758;9.290;2022-11-23T03:21:03;2.70;16.00
429;DHT22;201;48.758;9.290;2022-11-23T03:23:29;2.60;16.00
429;DHT22;201;48.758;9.290;2022-11-23T03:25:56;2.60;16.00
429;DHT22;201;48.758;9.290;2022-11-23T03:28:21;2.60;16.30
429;DHT22;201;48.758;9.290;2022-11-23T03:30:47;2.60;16.40
429;DHT22;201;48.758;9.290;2022-11-23T03:33:12;2.60;16.50
429;DHT22;201;48.758;9.290;2022-11-23T03:35:38;2.50;16.60
429;DHT22;201;48.758;9.290;2022-11-23T03:38:04;2.60;16.90
429;DHT22;201;48.758;9.290;2022-11-23T03:40:29;2.70;17.10
429;DHT22;201;48.758;9.290;2022-11-23T03:42:55;2.80;17.20
429;DHT22;201;48.758;9.290;2022-11-23T03:45:20;2.80;16.90
429;DHT22;201;48.758;9.290;2022-11-23T03:47:46;2.80;16.90
429;DHT22;201;48.758;9.290;2022-11-23T03:50:11;3.00;17.00
429;DHT22;201;48.758;9.290;2022-11-23T03:52:37;3.00;16.90
429;DHT22;201;48.758;9.290;2022-11-23T03:55:03;3.00;16.50
429;DHT22;201;48.758;9.290;2022-11-23T03:57:28;3.10;16.30
429;DHT22;201;48.758;9.290;2022-11-23T03:59:54;3.10;16.00
429;DHT22;201;48.758;9.290;2022-11-23T04:02:19;3.20;15.70
429;DHT22;201;48.758;9.290;2022-11-23T04:04:45;3.30;15.40
429;DHT22;201;48.758;9.290;2022-11-23T04:07:10;3.30;15.00
429;DHT22;201;48.758;9.290;2022-11-23T04:09:36;3.40;14.60
429;DHT22;201;48.758;9.290;2022-11-23T04:12:01;3.50;14.30
429;DHT22;201;48.758;9.290;2022-11-23T04:14:27;3.60;14.50
429;DHT22;201;48.758;9.290;2022-11-23T04:16:52;3.70;14.50
429;DHT22;201;48.758;9.290;2022-11-23T04:19:18;3.70;14.50
429;DHT22;201;48.758;9.290;2022-11-23T04:21:43;3.70;13.90
429;DHT22;201;48.758;9.290;2022-11-23T04:24:09;3.60;13.10
429;DHT22;201;48.758;9.290;2022-11-23T04:26:34;3.70;13.20
429;DHT22;201;48.758;9.290;2022-11-23T04:29:00;3.70;12.90
429;DHT22;201;48.758;9.290;2022-11-23T04:31:25;3.70;12.70
429;DHT22;201;48.758;9.290;2022-11-23T04:33:50;3.70;12.50
429;DHT22;201;48.758;9.290;2022-11-23T04:36:16;3.70;12.10
429;DHT22;201;48.758;9.290;2022-11-23T04:38:42;3.70;12.00
429;DHT22;201;48.758;9.290;2022-11-23T04:41:07;3.70;11.90
429;DHT22;201;48.758;9.290;2022-11-23T04:43:33;3.70;11.90
429;DHT22;201;48.758;9.290;2022-11-23T04:45:58;3.70;12.00
429;DHT22;201;48.758;9.290;2022-11-23T04:48:24;3.70;11.90
429;DHT22;201;48.758;9.290;2022-11-23T04:50:49;3.70;11.70
429;DHT22;201;48.758;9.290;2022-11-23T04:53:15;3.70;11.50
429;DHT22;201;48.758;9.290;2022-11-23T04:55:41;3.70;11.50
429;DHT22;201;48.758;9.290;2022-11-23T04:58:06;3.70;11.30
429;DHT22;201;48.758;9.290;2022-11-23T05:00:32;3.70;11.30
429;DHT22;201;48.758;9.290;2022-11-23T05:03:00;3.70;11.40
429;DHT22;201;48.758;9.290;2022-11-23T05:05:26;3.70;11.20
429;DHT22;201;48.758;9.290;2022-11-23T05:07:51;3.60;11.10
429;DHT22;201;48.758;9.290;2022-11-23T05:10:17;3.60;11.20
429;DHT22;201;48.758;9.290;2022-11-23T05:12:42;3.50;11.20
429;DHT22;201;48.758;9.290;2022-11-23T05:15:10;3.40;11.20
429;DHT22;201;48.758;9.290;2022-11-23T05:17:36;3.30;11.50
429;DHT22;201;48.758;9.290;2022-11-23T05:20:02;3.30;11.80
429;DHT22;201;48.758;9.290;2022-11-23T05:22:28;3.10;12.00
429;DHT22;201;48.758;9.290;2022-11-23T05:24:53;3.10;12.50
429;DHT22;201;48.758;9.290;2022-11-23T05:27:19;3.10;12.80
429;DHT22;201;48.758;9.290;2022-11-23T05:29:45;3.00;13.20
429;DHT22;201;48.758;9.290;2022-11-23T05:32:10;2.90;13.80
429;DHT22;201;48.758;9.290;2022-11-23T05:34:36;2.90;13.90
429;DHT22;201;48.758;9.290;2022-11-23T05:37:01;2.90;14.00
429;DHT22;201;48.758;9.290;2022-11-23T05:39:27;2.90;14.00
429;DHT22;201;48.758;9.290;2022-11-23T05:41:52;3.00;14.00
429;DHT22;201;48.758;9.290;2022-11-23T05:44:18;3.00;14.00
429;DHT22;201;48.758;9.290;2022-11-23T05:46:43;3.00;14.00
429;DHT22;201;48.758;9.290;2022-11-23T05:49:09;3.00;14.00
429;DHT22;201;48.758;9.290;2022-11-23T05:51:35;3.00;14.00
429;DHT22;201;48.758;9.290;2022-11-23T05:54:00;2.90;13.90
429;DHT22;201;48.758;9.290;2022-11-23T05:56:26;2.90;14.00
429;DHT22;201;48.758;9.290;2022-11-23T05:58:54;2.90;13.90
429;DHT22;201;48.758;9.290;2022-11-23T06:01:20;2.90;13.90
429;DHT22;201;48.758;9.290;2022-11-23T06:03:48;2.90;13.90
429;DHT22;201;48.758;9.290;2022-11-23T06:06:13;3.00;14.00
429;DHT22;201;48.758;9.290;2022-11-23T06:08:39;3.00;14.00
429;DHT22;201;48.758;9.290;2022-11-23T06:11:04;3.10;14.10
429;DHT22;201;48.758;9.290;2022-11-23T06:13:30;3.20;14.20
429;DHT22;201;48.758;9.290;2022-11-23T06:15:56;3.30;14.20
429;DHT22;201;48.758;9.290;2022-11-23T06:18:22;3.30;14.20
429;DHT22;201;48.758;9.290;2022-11-23T06:20:47;3.30;14.20
429;DHT22;201;48.758;9.290;2022-11-23T06:23:13;3.30;13.00
429;DHT22;201;48.758;9.290;2022-11-23T06:25:38;3.30;12.60
429;DHT22;201;48.758;9.290;2022-11-23T06:28:04;3.40;12.70
429;DHT22;201;48.758;9.290;2022-11-23T06:30:30;3.40;12.20
429;DHT22;201;48.758;9.290;2022-11-23T06:32:56;3.40;12.60
429;DHT22;201;48.758;9.290;2022-11-23T06:35:22;3.40;11.90
429;DHT22;201;48.758;9.290;2022-11-23T06:37:49;3.40;11.70
429;DHT22;201;48.758;9.290;2022-11-23T06:40:14;3.40;11.50
429;DHT22;201;48.758;9.290;2022-11-23T06:42:40;3.40;11.50
429;DHT22;201;48.758;9.290;2022-11-23T06:45:06;3.30;11.50
429;DHT22;201;48.758;9.290;2022-11-23T06:47:32;3.30;11.80
429;DHT22;201;48.758;9.290;2022-11-23T06:49:58;3.30;11.90
429;DHT22;201;48.758;9.290;2022-11-23T06:52:23;3.20;12.10
429;DHT22;201;48.758;9.290;2022-11-23T06:54:49;3.20;12.20
429;DHT22;201;48.758;9.290;2022-11-23T06:57:15;3.20;12.20
429;DHT22;201;48.758;9.290;2022-11-23T06:59:41;3.10;12.30
429;DHT22;201;48.758;9.290;2022-11-23T07:02:07;3.10;12.60
429;DHT22;201;48.758;9.290;2022-11-23T07:04:33;3.10;12.80
429;DHT22;201;48.758;9.290;2022-11-23T07:06:59;3.00;13.20
429;DHT22;201;48.758;9.290;2022-11-23T07:09:24;3.00;13.50
429;DHT22;201;48.758;9.290;2022-11-23T07:11:50;2.90;13.90
429;DHT22;201;48.758;9.290;2022-11-23T07:14:15;2.90;13.90
429;DHT22;201;48.758;9.290;2022-11-23T07:16:41;2.80;13.90
429;DHT22;201;48.758;9.290;2022-11-23T07:19:07;2.80;13.90
429;DHT22;201;48.758;9.290;2022-11-23T07:21:32;2.90;13.90
429;DHT22;201;48.758;9.290;2022-11-23T07:23:58;2.80;13.90
429;DHT22;201;48.758;9.290;2022-11-23T07:26:23;2.80;13.90
429;DHT22;201;48.758;9.290;2022-11-23T07:28:49;2.80;13.90
429;DHT22;201;48.758;9.290;2022-11-23T07:31:14;2.80;13.90
429;DHT22;201;48.758;9.290;2022-11-23T07:33:47;2.80;13.90
429;DHT22;201;48.758;9.290;2022-11-23T07:36:13;2.90;13.90
429;DHT22;201;48.758;9.290;2022-11-23T07:38:38;2.90;13.90
429;DHT22;201;48.758;9.290;2022-11-23T07:41:04;3.00;14.00
429;DHT22;201;48.758;9.290;2022-11-23T07:43:30;3.00;14.00
429;DHT22;201;48.758;9.290;2022-11-23T07:45:56;3.10;14.10
429;DHT22;201;48.758;9.290;2022-11-23T07:48:22;3.10;14.10
429;DHT22;201;48.758;9.290;2022-11-23T07:50:50;3.10;13.60
429;DHT22;201;48.758;9.290;2022-11-23T07:53:16;3.20;13.80
429;DHT22;201;48.758;9.290;2022-11-23T07:55:41;3.20;13.10
429;DHT22;201;48.758;9.290;2022-11-23T07:58:08;3.20;13.00
429;DHT22;201;48.758;9.290;2022-11-23T08:00:34;3.20;12.90
429;DHT22;201;48.758;9.290;2022-11-23T08:02:59;3.30;12.90
429;DHT22;201;48.758;9.290;2022-11-23T08:05:25;3.40;12.80
429;DHT22;201;48.758;9.290;2022-11-23T08:07:51;3.50;12.50
429;DHT22;201;48.758;9.290;2022-11-23T08:10:21;3.50;12.30
429;DHT22;201;48.758;9.290;2022-11-23T08:12:46;3.60;12.20
429;DHT22;201;48.758;9.290;2022-11-23T08:15:12;3.70;11.80
429;DHT22;201;48.758;9.290;2022-11-23T08:17:37;3.70;11.60
429;DHT22;201;48.758;9.290;2022-11-23T08:20:03;3.80;11.10
429;DHT22;201;48.758;9.290;2022-11-23T08:22:29;3.80;10.60
429;DHT22;201;48.758;9.290;2022-11-23T08:24:55;3.90;10.40
429;DHT22;201;48.758;9.290;2022-11-23T08:27:20;3.90;10.30
429;DHT22;201;48.758;9.290;2022-11-23T08:29:46;3.90;9.80
429;DHT22;201;48.758;9.290;2022-11-23T08:32:11;3.90;9.80
429;DHT22;201;48.758;9.290;2022-11-23T08:34:37;4.00;9.70
429;DHT22;201;48.758;9.290;2022-11-23T08:37:02;4.10;9.70
429;DHT22;201;48.758;9.290;2022-11-23T08:39:28;4.10;9.20
429;DHT22;201;48.758;9.290;2022-11-23T08:41:53;4.20;9.20
429;DHT22;201;48.758;9.290;2022-11-23T08:44:19;4.30;8.90
429;DHT22;201;48.758;9.290;2022-11-23T08:46:45;4.40;8.10
429;DHT22;201;48.758;9.290;2022-11-23T08:49:10;4.50;7.10
429;DHT22;201;48.758;9.290;2022-11-23T08:51:36;4.60;6.60
429;DHT22;201;48.758;9.290;2022-11-23T08:54:01;4.60;6.60
429;DHT22;201;48.758;9.290;2022-11-23T08:56:27;4.80;6.70
429;DHT22;201;48.758;9.290;2022-11-23T08:58:52;4.90;6.80
429;DHT22;201;48.758;9.290;2022-11-23T09:01:18;4.90;6.20
429;DHT22;201;48.758;9.290;2022-11-23T09:03:44;5.00;5.60
429;DHT22;201;48.758;9.290;2022-11-23T09:06:10;5.10;5.00
429;DHT22;201;48.758;9.290;2022-11-23T09:08:36;5.10;4.60
429;DHT22;201;48.758;9.290;2022-11-23T09:11:04;5.20;4.40
429;DHT22;201;48.758;9.290;2022-11-23T09:13:30;5.30;4.20
429;DHT22;201;48.758;9.290;2022-11-23T09:15:59;5.50;4.00
429;DHT22;201;48.758;9.290;2022-11-23T09:18:26;5.50;3.40
429;DHT22;201;48.758;9.290;2022-11-23T09:20:52;5.60;3.50
429;DHT22;201;48.758;9.290;2022-11-23T09:23:17;5.70;2.90
429;DHT22;201;48.758;9.290;2022-11-23T09:25:43;5.70;2.20
429;DHT22;201;48.758;9.290;2022-11-23T09:28:12;5.70;2.30
429;DHT22;201;48.758;9.290;2022-11-23T09:30:39;5.80;2.20
429;DHT22;201;48.758;9.290;2022-11-23T09:33:05;5.80;1.60
429;DHT22;201;48.758;9.290;2022-11-23T09:35:30;5.90;1.60
429;DHT22;201;48.758;9.290;2022-11-23T09:37:59;5.90;1.60
429;DHT22;201;48.758;9.290;2022-11-23T09:40:32;5.90;1.50
429;DHT22;201;48.758;9.290;2022-11-23T09:43:22;6.00;1.60
429;DHT22;201;48.758;9.290;2022-11-23T09:45:54;5.90;1.40
429;DHT22;201;48.758;9.290;2022-11-23T09:51:13;6.00;1.60
429;DHT22;201;48.758;9.290;2022-11-23T09:53:54;6.00;1.50
429;DHT22;201;48.758;9.290;2022-11-23T09:56:31;6.10;1.60
429;DHT22;201;48.758;9.290;2022-11-23T09:59:00;6.10;1.60
429;DHT22;201;48.758;9.290;2022-11-23T10:01:26;6.10;1.50
429;DHT22;201;48.758;9.290;2022-11-23T10:03:52;6.10;1.40
429;DHT22;201;48.758;9.290;2022-11-23T10:22:32;6.50;1.00
429;DHT22;201;48.758;9.290;2022-11-23T10:25:07;6.60;1.00
429;DHT22;201;48.758;9.290;2022-11-23T10:27:35;6.70;1.00
429;DHT22;201;48.758;9.290;2022-11-23T10:30:00;6.70;1.00
429;DHT22;201;48.758;9.290;2022-11-23T10:32:37;6.80;1.00
429;DHT22;201;48.758;9.290;2022-11-23T10:35:32;6.90;1.00
429;DHT22;201;48.758;9.290;2022-11-23T10:38:16;7.00;1.00
429;DHT22;201;48.758;9.290;2022-11-23T10:40:53;7.10;1.00
429;DHT22;201;48.758;9.290;2022-11-23T10:43:25;7.20;1.00
429;DHT22;201;48.758;9.290;2022-11-23T10:45:51;7.30;1.00
429;DHT22;201;48.758;9.290;2022-11-23T10:48:35;7.40;1.00
429;DHT22;201;48.758;9.290;2022-11-23T10:51:22;7.40;1.00
429;DHT22;201;48.758;9.290;2022-11-23T10:54:21;7.50;1.00
429;DHT22;201;48.758;9.290;2022-11-23T10:56:48;7.60;1.00
429;DHT22;201;48.758;9.290;2022-11-23T10:59:37;7.70;1.00
429;DHT22;201;48.758;9.290;2022-11-23T11:02:20;7.80;1.00
429;DHT22;201;48.758;9.290;2022-11-23T11:04:49;7.90;1.00
429;DHT22;201;48.758;9.290;2022-11-23T11:07:29;8.00;1.00
429;DHT22;201;48.758;9.290;2022-11-23T11:09:58;8.10;1.00
429;DHT22;201;48.758;9.290;2022-11-23T11:12:25;8.10;1.00
429;DHT22;201;48.758;9.290;2022-11-23T11:14:58;8.10;1.00
429;DHT22;201;48.758;9.290;2022-11-23T11:17:32;8.10;1.00
429;DHT22;201;48.758;9.290;2022-11-23T11:19:59;8.10;1.00
429;DHT22;201;48.758;9.290;2022-11-23T11:22:32;8.10;1.00
429;DHT22;201;48.758;9.290;2022-11-23T11:24:59;8.20;1.00
429;DHT22;201;48.758;9.290;2022-11-23T11:27:27;8.20;1.00
429;DHT22;201;48.758;9.290;2022-11-23T11:30:06;8.20;1.00
429;DHT22;201;48.758;9.290;2022-11-23T11:37:55;8.20;1.00
429;DHT22;201;48.758;9.290;2022-11-23T11:40:38;8.30;1.00
429;DHT22;201;48.758;9.290;2022-11-23T11:43:10;8.30;1.00
429;DHT22;201;48.758;9.290;2022-11-23T11:45:43;8.40;1.00
429;DHT22;201;48.758;9.290;2022-11-23T11:50:49;8.40;1.00
429;DHT22;201;48.758;9.290;2022-11-23T11:53:26;8.40;1.00
429;DHT22;201;48.758;9.290;2022-11-23T11:56:16;8.50;1.00
429;DHT22;201;48.758;9.290;2022-11-23T11:59:01;8.60;1.00
429;DHT22;201;48.758;9.290;2022-11-23T12:04:37;8.70;1.00
429;DHT22;201;48.758;9.290;2022-11-23T12:09:33;8.80;1.00
429;DHT22;201;48.758;9.290;2022-11-23T12:11:59;8.90;1.00
429;DHT22;201;48.758;9.290;2022-11-23T12:14:25;8.90;1.00
429;DHT22;201;48.758;9.290;2022-11-23T12:17:43;8.90;1.00
429;DHT22;201;48.758;9.290;2022-11-23T12:22:53;9.00;1.00
429;DHT22;201;48.758;9.290;2022-11-23T12:25:31;9.10;1.00
429;DHT22;201;48.758;9.290;2022-11-23T12:33:43;9.10;1.00
429;DHT22;201;48.758;9.290;2022-11-23T12:38:54;9.20;1.00
429;DHT22;201;48.758;9.290;2022-11-23T12:41:33;9.30;1.00
429;DHT22;201;48.758;9.290;2022-11-23T12:56:01;9.40;1.00
429;DHT22;201;48.758;9.290;2022-11-23T12:58:30;9.40;1.00
429;DHT22;201;48.758;9.290;2022-11-23T13:01:16;9.40;1.00
429;DHT22;201;48.758;9.290;2022-11-23T13:15:30;9.50;1.00
429;DHT22;201;48.758;9.290;2022-11-23T13:23:48;9.60;1.00
429;DHT22;201;48.758;9.290;2022-11-23T13:26:22;9.70;1.00
429;DHT22;201;48.758;9.290;2022-11-23T13:28:52;9.70;1.00
429;DHT22;201;48.758;9.290;2022-11-23T13:33:50;9.90;1.00
429;DHT22;201;48.758;9.290;2022-11-23T13:38:57;10.00;1.00
429;DHT22;201;48.758;9.290;2022-11-23T13:44:20;10.00;1.00
429;DHT22;201;48.758;9.290;2022-11-23T13:49:46;10.00;1.00
429;DHT22;201;48.758;9.290;2022-11-23T13:52:23;10.00;1.00
429;DHT22;201;48.758;9.290;2022-11-23T13:57:41;9.80;1.00
429;DHT22;201;48.758;9.290;2022-11-23T14:06:49;9.60;1.00
429;DHT22;201;48.758;9.290;2022-11-23T14:09:28;9.50;1.00
429;DHT22;201;48.758;9.290;2022-11-23T14:14:32;9.40;1.00
429;DHT22;201;48.758;9.290;2022-11-23T14:33:45;9.30;1.00
429;DHT22;201;48.758;9.290;2022-11-23T14:36:21;9.50;1.00
429;DHT22;201;48.758;9.290;2022-11-23T14:41:56;9.70;1.00
429;DHT22;201;48.758;9.290;2022-11-23T14:44:26;9.50;1.00
429;DHT22;201;48.758;9.290;2022-11-23T14:47:07;9.40;1.00
429;DHT22;201;48.758;9.290;2022-11-23T14:49:33;9.30;1.00
429;DHT22;201;48.758;9.290;2022-11-23T14:51:59;9.20;1.00
429;DHT22;201;48.758;9.290;2022-11-23T14:54:26;9.10;1.00
429;DHT22;201;48.758;9.290;2022-11-23T14:56:56;9.10;1.00
429;DHT22;201;48.758;9.290;2022-11-23T14:59:28;9.00;1.00
429;DHT22;201;48.758;9.290;2022-11-23T15:02:00;8.90;1.00
429;DHT22;201;48.758;9.290;2022-11-23T15:04:31;8.70;1.00
429;DHT22;201;48.758;9.290;2022-11-23T15:07:11;8.50;1.00
429;DHT22;201;48.758;9.290;2022-11-23T15:10:01;8.40;1.00
429;DHT22;201;48.758;9.290;2022-11-23T15:12:43;8.30;1.00
429;DHT22;201;48.758;9.290;2022-11-23T15:15:17;8.20;1.00
429;DHT22;201;48.758;9.290;2022-11-23T15:17:57;8.20;1.00
429;DHT22;201;48.758;9.290;2022-11-23T15:20:29;8.10;1.00
429;DHT22;201;48.758;9.290;2022-11-23T15:22:57;8.00;1.00
429;DHT22;201;48.758;9.290;2022-11-23T15:25:22;8.00;1.00
429;DHT22;201;48.758;9.290;2022-11-23T15:27:48;7.90;1.00
429;DHT22;201;48.758;9.290;2022-11-23T15:30:25;7.90;1.00
429;DHT22;201;48.758;9.290;2022-11-23T15:32:59;7.90;1.00
429;DHT22;201;48.758;9.290;2022-11-23T15:35:37;7.80;1.00
429;DHT22;201;48.758;9.290;2022-11-23T15:38:08;7.80;1.00
429;DHT22;201;48.758;9.290;2022-11-23T15:40:40;7.70;1.00
429;DHT22;201;48.758;9.290;2022-11-23T15:43:11;7.60;1.00
429;DHT22;201;48.758;9.290;2022-11-23T15:48:17;7.30;1.00
429;DHT22;201;48.758;9.290;2022-11-23T15:50:55;7.30;1.00
429;DHT22;201;48.758;9.290;2022-11-23T15:53:27;7.10;1.00
429;DHT22;201;48.758;9.290;2022-11-23T15:55:57;7.10;1.00
429;DHT22;201;48.758;9.290;2022-11-23T15:58:23;7.00;1.00
429;DHT22;201;48.758;9.290;2022-11-23T16:00:52;7.00;1.00
429;DHT22;201;48.758;9.290;2022-11-23T16:03:31;7.00;1.00
429;DHT22;201;48.758;9.290;2022-11-23T16:08:38;7.00;1.00
429;DHT22;201;48.758;9.290;2022-11-23T16:13:43;7.10;1.00
429;DHT22;201;48.758;9.290;2022-11-23T16:16:16;7.10;1.00
429;DHT22;201;48.758;9.290;2022-11-23T16:18:47;7.20;1.00
429;DHT22;201;48.758;9.290;2022-11-23T16:21:16;7.30;1.00
429;DHT22;201;48.758;9.290;2022-11-23T16:23:50;7.30;1.00
429;DHT22;201;48.758;9.290;2022-11-23T16:26:18;7.40;1.00
429;DHT22;201;48.758;9.290;2022-11-23T16:29:03;7.50;1.00
429;DHT22;201;48.758;9.290;2022-11-23T16:31:38;7.50;1.00
429;DHT22;201;48.758;9.290;2022-11-23T16:34:17;7.50;1.00
429;DHT22;201;48.758;9.290;2022-11-23T16:36:43;7.60;1.00
429;DHT22;201;48.758;9.290;2022-11-23T16:39:09;7.60;1.00
429;DHT22;201;48.758;9.290;2022-11-23T16:41:35;7.60;1.00
429;DHT22;201;48.758;9.290;2022-11-23T16:44:01;7.60;1.00
429;DHT22;201;48.758;9.290;2022-11-23T16:46:26;7.60;1.00
429;DHT22;201;48.758;9.290;2022-11-23T16:48:52;7.50;1.00
429;DHT22;201;48.758;9.290;2022-11-23T16:51:19;7.60;1.00
429;DHT22;201;48.758;9.290;2022-11-23T16:53:46;7.60;1.00
429;DHT22;201;48.758;9.290;2022-11-23T16:56:18;7.60;1.00
429;DHT22;201;48.758;9.290;2022-11-23T16:58:44;7.60;1.00
429;DHT22;201;48.758;9.290;2022-11-23T17:01:23;7.60;1.00
429;DHT22;201;48.758;9.290;2022-11-23T17:03:50;7.60;1.00
429;DHT22;201;48.758;9.290;2022-11-23T17:06:18;7.50;1.00
429;DHT22;201;48.758;9.290;2022-11-23T17:08:47;7.50;1.00
429;DHT22;201;48.758;9.290;2022-11-23T17:11:14;7.40;1.00
429;DHT22;201;48.758;9.290;2022-11-23T17:13:41;7.20;1.00
429;DHT22;201;48.758;9.290;2022-11-23T17:16:18;7.20;1.00
429;DHT22;201;48.758;9.290;2022-11-23T17:18:44;7.10;1.00
429;DHT22;201;48.758;9.290;2022-11-23T17:21:10;7.10;1.00
429;DHT22;201;48.758;9.290;2022-11-23T17:23:36;7.00;1.00
429;DHT22;201;48.758;9.290;2022-11-23T17:26:05;7.00;1.00
429;DHT22;201;48.758;9.290;2022-11-23T17:28:31;7.10;1.00
429;DHT22;201;48.758;9.290;2022-11-23T17:30:57;7.00;1.00
429;DHT22;201;48.758;9.290;2022-11-23T17:33:22;7.00;1.00
429;DHT22;201;48.758;9.290;2022-11-23T17:35:48;6.90;1.00
429;DHT22;201;48.758;9.290;2022-11-23T17:38:18;6.80;1.00
429;DHT22;201;48.758;9.290;2022-11-23T17:40:47;6.70;1.20
429;DHT22;201;48.758;9.290;2022-11-23T17:43:13;6.70;1.80
429;DHT22;201;48.758;9.290;2022-11-23T17:45:39;6.60;1.40
429;DHT22;201;48.758;9.290;2022-11-23T17:48:05;6.60;2.90
429;DHT22;201;48.758;9.290;2022-11-23T17:50:31;6.50;3.50
429;DHT22;201;48.758;9.290;2022-11-23T17:52:56;6.50;3.60
429;DHT22;201;48.758;9.290;2022-11-23T17:55:22;6.50;3.90
429;DHT22;201;48.758;9.290;2022-11-23T17:57:47;6.50;4.60
429;DHT22;201;48.758;9.290;2022-11-23T18:00:19;6.40;5.00
429;DHT22;201;48.758;9.290;2022-11-23T18:02:45;6.40;5.50
429;DHT22;201;48.758;9.290;2022-11-23T18:05:11;6.40;5.90
429;DHT22;201;48.758;9.290;2022-11-23T18:07:37;6.30;7.00
429;DHT22;201;48.758;9.290;2022-11-23T18:10:03;6.30;6.90
429;DHT22;201;48.758;9.290;2022-11-23T18:12:29;6.20;7.70
429;DHT22;201;48.758;9.290;2022-11-23T18:14:55;6.20;7.70
429;DHT22;201;48.758;9.290;2022-11-23T18:17:20;6.20;8.90
429;DHT22;201;48.758;9.290;2022-11-23T18:19:47;6.20;9.90
429;DHT22;201;48.758;9.290;2022-11-23T18:22:13;6.10;9.80
429;DHT22;201;48.758;9.290;2022-11-23T18:24:38;6.10;10.40
429;DHT22;201;48.758;9.290;2022-11-23T18:27:04;6.10;11.30
429;DHT22;201;48.758;9.290;2022-11-23T18:29:30;6.00;11.40
429;DHT22;201;48.758;9.290;2022-11-23T18:31:55;6.00;12.20
429;DHT22;201;48.758;9.290;2022-11-23T18:34:21;6.00;13.10
429;DHT22;201;48.758;9.290;2022-11-23T18:36:47;6.00;13.70
429;DHT22;201;48.758;9.290;2022-11-23T18:39:12;5.90;13.60
429;DHT22;201;48.758;9.290;2022-11-23T18:41:38;5.90;13.90
429;DHT22;201;48.758;9.290;2022-11-23T18:44:04;5.90;14.30
429;DHT22;201;48.758;9.290;2022-11-23T18:46:29;5.90;14.60
429;DHT22;201;48.758;9.290;2022-11-23T18:48:56;5.80;14.80
429;DHT22;201;48.758;9.290;2022-11-23T18:51:22;5.80;15.30
429;DHT22;201;48.758;9.290;2022-11-23T18:53:48;5.80;15.90
429;DHT22;201;48.758;9.290;2022-11-23T18:56:15;5.80;15.90
429;DHT22;201;48.758;9.290;2022-11-23T18:58:43;5.90;16.00
429;DHT22;201;48.758;9.290;2022-11-23T19:01:14;5.80;15.90
429;DHT22;201;48.758;9.290;2022-11-23T19:03:40;5.80;15.90
429;DHT22;201;48.758;9.290;2022-11-23T19:06:07;5.80;16.10
429;DHT22;201;48.758;9.290;2022-11-23T19:08:40;5.80;16.50
429;DHT22;201;48.758;9.290;2022-11-23T19:11:10;5.80;16.20
429;DHT22;201;48.758;9.290;2022-11-23T19:13:40;5.80;16.30